Detall de PIREP

Printer-friendly versionPDF version

[2013/04/06 10:27:00]
Flight IATA:CT2310
Pilot Number:012
Company ICAO:CAT
Aircraft Type:MD11/E
PAX:280
Aircraft Registration:PAX
Departing Airport: LIEA
Destination Airport: LIMC
Alternate Airport:LIMF
Online: VATSIM
Route:GOPAT UL978 OKBON UN851 TORTU UM858 UNITA UL50 ANAKI
Flight Level:F300
No Slew and time accel
No pause
Crash detect
Detect pilot in Cockpit between each 30 and 45 minutes
10:27 Zero fuel Weight: 386222 Lbs, Fuel Weight: 28348 Lbs
10:27 VATSIM:LIEA 060950Z 02003KT 9999 SCT040 14/11 Q1006
10:27 VATSIM:LIMC 060950Z VRB02KT 9999 SCT020 12/07 Q1010 NOSIG
10:27 VOICE CATALONIAN
10:29 Parking Brakes off
10:34 Take-off
10:34 Take off Weight: 413435 Lbs
10:34 Wind: 020º @ 003 Knots Heading: 205º
10:34 POS N40º 37´ 51´´ E008º 17´ 24´´
10:34 Gear Up: 183 Knots
10:34 Flaps:3 at 183 Knots
10:36 Flaps:2 at 250 Knots
10:36 Flaps:3 at 250 Knots
10:36 Flaps:2 at 250 Knots
10:36 Flaps:1 at 250 Knots
10:36 Flaps:0 at 251 Knots
10:44 TOC
10:44 Fuel Weight: 19944 Lb
10:49 Wind:234º@050 Knots Heading: 355º Ground Speed: 499 Knots Altitude 29770 ft
11:02 TOD
11:02 Fuel Weight: 15058 Lb
11:04 Wind:225º@030 Knots Heading: 337º Ground Speed: 450 Knots Altitude 27096 ft
11:18 Flaps:1 at 246 Knots
11:18 Flaps:2 at 246 Knots
11:18 Flaps:3 at 247 Knots
11:19 Wind:091º@003 Knots Heading: 031º Ground Speed: 256 Knots Altitude 4022 ft
11:19 Flaps:4 at 214 Knots
11:19 Flaps:3 at 212 Knots
11:19 Flaps:4 at 210 Knots
11:19 Flaps:5 at 206 Knots
11:19 Flaps:6 at 205 Knots
11:21 Gear Down: 179 Knots
11:21 Flaps:7 at 181 Knots
11:21 Flaps:8 at 181 Knots
11:21 Flaps:7 at 181 Knots
11:25 TouchDown:Rate -211 ft/min Speed: 143 Knots
11:25 VATSIM:LIMC 061050Z 18005KT 130V200 9999 BKN020 12/07 Q1010 NOSIG
11:25 Land
11:25 Wind:131º@003 Knots
11:25 Heading: 350º
11:25 Flight Duration: 00:51
11:25 Landing Weight: 397179 Lbs
11:25 POS N45º 37´ 43´´ E008º 43´ 25´´
11:28 Parking brakes on
11:28 Block to Block Duration: 00:59
11:28 Final Fuel: 10712 Lbls
11:28 Spent Fuel: 17636 Lbls
11:28 Flight Length: 333 NM
11:28 TOD Land Length: 118 NM

Exportar CSV

Powered by Drupal - Modified by Danger4k